Weather reports worldwide

Advertisment
Glen Ogle, United Kingdom (3148): temperature & dewpoint: 09.10.2019 18:00:00 - 15.10.2019 18:00:00 (BST)Glen Ogle, United Kingdom (3148): wind speed & gusts: 09.10.2019 18:00:00 - 15.10.2019 18:00:00 (BST)Glen Ogle, United Kingdom (3148): wind direction: 09.10.2019 18:00:00 - 15.10.2019 18:00:00 (BST)
Date & Time tt [°C] td [°C] ff [km/h] ff [kn] fx [km/h] fx [kn] dd
15.10.2019 18:00:00 6,9 5,8 13 7 - - SE
15.10.2019 17:00:00 7,1 5,8 15 8 - - S
15.10.2019 16:00:00 7,3 5,8 15 8 - - SSE
15.10.2019 15:00:00 7,7 5,1 11 6 - - SSE
15.10.2019 14:00:00 7,4 4,1 13 7 - - SSE
15.10.2019 13:00:00 7,2 5,4 9 5 - - SSE
15.10.2019 12:00:00 7,1 6,0 8 4 - - S
15.10.2019 11:00:00 5,9 5,3 8 4 - - SSE
15.10.2019 10:00:00 5,5 5,4 9 5 - - SSE
15.10.2019 09:00:00 5,6 4,9 21 11 - - SE
15.10.2019 08:00:00 5,7 5,0 16 9 - - SE
15.10.2019 07:00:00 5,6 5,1 16 9 - - ESE
15.10.2019 06:00:00 5,9 5,9 15 8 - - SE
15.10.2019 05:00:00 5,8 5,8 16 9 - - ESE
15.10.2019 04:00:00 5,9 5,9 15 8 - - ESE
15.10.2019 03:00:00 5,8 5,8 18 10 - - SE
15.10.2019 02:00:00 5,7 5,7 13 7 - - SE
15.10.2019 01:00:00 5,4 5,4 13 7 - - SE
15.10.2019 00:00:00 5,2 5,2 18 10 - - E
14.10.2019 23:00:00 5,4 5,3 21 11 - - ESE
14.10.2019 22:00:00 5,8 5,1 21 11 - - ESE
14.10.2019 21:00:00 5,8 5,1 24 13 - - ESE
14.10.2019 20:00:00 6,0 5,9 28 15 - - ESE
14.10.2019 19:00:00 6,1 5,8 22 12 - - ESE
14.10.2019 18:00:00 6,4 4,3 22 12 - - ESE
14.10.2019 17:00:00 7,6 1,0 8 4 - - SE
14.10.2019 16:00:00 6,7 3,1 15 8 - - SSE
14.10.2019 15:00:00 7,1 4,0 8 4 - - SSE
14.10.2019 14:00:00 7,0 3,0 11 6 - - SSE
14.10.2019 13:00:00 7,2 3,7 9 5 - - SSE
14.10.2019 12:00:00 6,4 1,7 5 3 - - SSW
14.10.2019 11:00:00 5,4 1,3 5 3 - - SE
14.10.2019 10:00:00 5,1 2,7 13 7 - - SSE
14.10.2019 09:00:00 5,2 4,0 13 7 - - S
14.10.2019 08:00:00 4,9 4,9 5 3 - - SSE
14.10.2019 07:00:00 5,4 4,8 5 3 - - SW
14.10.2019 06:00:00 5,3 4,8 5 3 - - W
14.10.2019 05:00:00 5,1 4,1 15 8 - - S
14.10.2019 04:00:00 4,7 4,3 8 4 - - S
14.10.2019 03:00:00 5,3 4,1 5 3 - - WSW
14.10.2019 02:00:00 5,5 4,1 4 2 - - SSW
14.10.2019 01:00:00 4,7 4,6 2 1 - - N
14.10.2019 00:00:00 4,7 4,7 4 2 - - N
13.10.2019 23:00:00 5,1 4,8 4 2 - - NNW
13.10.2019 22:00:00 5,3 4,8 5 3 - - WNW
13.10.2019 21:00:00 5,4 5,2 5 3 - - WNW
13.10.2019 20:00:00 5,8 5,6 9 5 - - NNW
13.10.2019 19:00:00 6,1 5,5 8 4 - - NNE
13.10.2019 18:00:00 6,0 5,8 9 5 - - NE
13.10.2019 17:00:00 6,2 5,7 11 6 - - ENE
13.10.2019 16:00:00 6,2 5,7 11 6 - - NE
13.10.2019 15:00:00 6,3 4,9 5 3 - - NE
13.10.2019 14:00:00 6,0 5,5 13 7 - - E
13.10.2019 13:00:00 5,8 5,1 16 9 - - ESE
13.10.2019 12:00:00 6,2 5,3 16 9 - - ESE
13.10.2019 11:00:00 5,9 5,2 13 7 - - ESE
13.10.2019 10:00:00 5,8 5,3 8 4 - - E
13.10.2019 09:00:00 5,3 5,3 13 7 - - SE
13.10.2019 08:00:00 5,3 5,1 13 7 - - ESE
13.10.2019 07:00:00 5,1 4,6 16 9 - - ESE
13.10.2019 06:00:00 5,6 5,0 8 4 - - SSE
13.10.2019 05:00:00 5,6 4,8 13 7 - - SSE
13.10.2019 04:00:00 5,4 5,1 9 5 - - SSE
13.10.2019 03:00:00 5,8 4,6 9 5 - - SSE
13.10.2019 02:00:00 5,9 4,8 13 7 - - S
13.10.2019 01:00:00 5,8 4,6 11 6 - - S
13.10.2019 00:00:00 5,7 4,8 15 8 - - S
12.10.2019 23:00:00 5,7 4,5 11 6 - - S
12.10.2019 22:00:00 5,9 4,4 13 7 - - S
12.10.2019 21:00:00 6,1 4,1 8 4 - - SSW
12.10.2019 20:00:00 5,0 4,6 11 6 - - W
12.10.2019 19:00:00 5,1 4,5 9 5 - - WNW
12.10.2019 18:00:00 6,4 3,1 26 14 - - SW
12.10.2019 17:00:00 5,9 4,2 16 9 - - W
12.10.2019 16:00:00 6,4 3,9 31 17 - - W
12.10.2019 15:00:00 6,4 4,9 18 10 - - WSW
12.10.2019 14:00:00 5,9 3,9 22 12 63 34 WSW
12.10.2019 13:00:00 6,0 5,2 18 10 - - W
12.10.2019 12:00:00 6,5 4,5 22 12 - - SW
12.10.2019 11:00:00 5,2 4,8 18 10 - - W
12.10.2019 10:00:00 4,7 4,3 13 7 - - W
12.10.2019 09:00:00 4,1 3,9 18 10 - - W
12.10.2019 08:00:00 4,6 2,8 28 15 - - W
12.10.2019 07:00:00 4,7 2,7 29 16 - - W
12.10.2019 06:00:00 4,6 4,1 24 13 - - W
12.10.2019 05:00:00 4,5 4,3 26 14 - - W
12.10.2019 04:00:00 4,3 4,0 28 15 - - W
12.10.2019 03:00:00 4,5 3,9 26 14 - - W
12.10.2019 02:00:00 4,7 4,0 28 15 - - W
12.10.2019 01:00:00 5,0 4,5 26 14 55 30 W
12.10.2019 00:00:00 5,1 4,9 35 19 50 27 W
11.10.2019 23:00:00 5,5 5,3 24 13 52 28 W
11.10.2019 22:00:00 5,8 5,7 35 19 54 29 W
11.10.2019 21:00:00 5,9 5,0 41 22 72 39 W
11.10.2019 20:00:00 6,3 5,3 31 17 68 37 SW
11.10.2019 19:00:00 6,4 4,5 39 21 68 37 SSW
11.10.2019 18:00:00 6,8 4,4 35 19 67 36 WSW
11.10.2019 17:00:00 7,0 4,2 46 25 81 44 WSW
11.10.2019 16:00:00 6,9 4,6 54 29 83 45 WSW
11.10.2019 15:00:00 6,8 4,8 52 28 81 44 WSW
11.10.2019 14:00:00 7,0 3,6 42 23 87 47 SW
11.10.2019 13:00:00 7,0 4,3 50 27 85 46 WSW
11.10.2019 12:00:00 6,8 4,8 39 21 67 36 SW
11.10.2019 11:00:00 6,9 4,5 41 22 63 34 SW
11.10.2019 10:00:00 7,2 4,1 39 21 72 39 SW
11.10.2019 09:00:00 6,7 4,7 41 22 68 37 SW
11.10.2019 08:00:00 6,7 5,0 44 24 81 44 SW
11.10.2019 07:00:00 6,9 5,2 42 23 72 39 SSW
11.10.2019 06:00:00 6,9 5,6 39 21 57 31 SSW
11.10.2019 05:00:00 7,1 5,3 39 21 65 35 SSW
11.10.2019 04:00:00 7,3 5,5 37 20 63 34 SW
11.10.2019 03:00:00 7,0 5,6 34 18 68 37 SSW
11.10.2019 02:00:00 8,1 4,8 41 22 65 35 SSW
11.10.2019 01:00:00 7,7 6,0 37 20 67 36 SSW
11.10.2019 00:00:00 7,8 6,1 44 24 72 39 SW
10.10.2019 23:00:00 8,6 6,4 41 22 85 46 SW
10.10.2019 22:00:00 8,6 7,7 44 24 72 39 SSW
10.10.2019 21:00:00 8,2 7,5 37 20 63 34 SSW
10.10.2019 20:00:00 7,9 7,0 34 18 52 28 S
10.10.2019 19:00:00 8,4 6,6 34 18 50 27 SSW
10.10.2019 18:00:00 6,9 6,7 37 20 48 26 S
10.10.2019 17:00:00 6,1 6,1 35 19 54 29 S
10.10.2019 16:00:00 5,9 5,4 24 13 50 27 S
10.10.2019 15:00:00 6,3 5,7 35 19 55 30 S
10.10.2019 14:00:00 7,0 5,6 35 19 54 29 SSW
10.10.2019 13:00:00 7,6 3,9 34 18 48 26 SW
10.10.2019 12:00:00 7,0 5,8 31 17 48 26 WSW
10.10.2019 11:00:00 7,3 5,2 35 19 48 26 WSW
10.10.2019 10:00:00 6,7 6,1 18 10 - - W
10.10.2019 09:00:00 6,3 6,2 26 14 - - WSW
10.10.2019 08:00:00 6,4 6,4 29 16 46 25 W
10.10.2019 07:00:00 6,6 6,3 34 18 59 32 W
10.10.2019 06:00:00 6,8 6,8 31 17 50 27 W
10.10.2019 05:00:00 6,9 6,8 35 19 52 28 W
10.10.2019 04:00:00 7,0 6,9 39 21 61 33 W
10.10.2019 03:00:00 7,0 7,0 41 22 67 36 W
10.10.2019 02:00:00 7,0 6,9 52 28 76 41 W
10.10.2019 01:00:00 6,9 6,5 48 26 74 40 W
10.10.2019 00:00:00 7,1 6,4 41 22 67 36 WSW
09.10.2019 23:00:00 6,7 6,2 46 25 74 40 W
09.10.2019 22:00:00 6,5 6,0 48 26 81 44 W
09.10.2019 21:00:00 6,3 5,8 48 26 70 38 W
09.10.2019 20:00:00 6,5 4,9 39 21 70 38 WSW
09.10.2019 19:00:00 5,9 4,8 48 26 76 41 W
09.10.2019 18:00:00 5,9 4,4 48 26 76 41 WSW

tt = temperature
td = dewpoint
ff = wind speed
fx = gusts
dd = wind direction

Next stations